sensor_id;sensor_type;location;lat;lon;timestamp;temperature;humidity
8563;DHT22;16392;52.508;13.468;2024-03-02T00:00:27;8.40;99.90
8563;DHT22;16392;52.508;13.468;2024-03-02T00:02:56;8.40;99.90
8563;DHT22;16392;52.508;13.468;2024-03-02T00:05:23;8.40;99.90
8563;DHT22;16392;52.508;13.468;2024-03-02T00:07:53;8.40;99.90
8563;DHT22;16392;52.508;13.468;2024-03-02T00:10:22;8.50;99.90
8563;DHT22;16392;52.508;13.468;2024-03-02T00:12:51;8.50;99.90
8563;DHT22;16392;52.508;13.468;2024-03-02T00:18:20;8.50;99.90
8563;DHT22;16392;52.508;13.468;2024-03-02T00:20:47;8.50;99.90
8563;DHT22;16392;52.508;13.468;2024-03-02T00:23:15;8.60;99.90
8563;DHT22;16392;52.508;13.468;2024-03-02T00:25:44;8.60;99.90
8563;DHT22;16392;52.508;13.468;2024-03-02T00:28:14;8.60;99.90
8563;DHT22;16392;52.508;13.468;2024-03-02T00:30:51;8.70;99.90
8563;DHT22;16392;52.508;13.468;2024-03-02T00:33:21;8.70;99.90
8563;DHT22;16392;52.508;13.468;2024-03-02T00:35:48;8.70;99.90
8563;DHT22;16392;52.508;13.468;2024-03-02T00:38:15;8.70;99.90
8563;DHT22;16392;52.508;13.468;2024-03-02T00:40:43;8.70;99.90
8563;DHT22;16392;52.508;13.468;2024-03-02T00:43:31;8.70;99.90
8563;DHT22;16392;52.508;13.468;2024-03-02T00:46:01;8.80;99.90
8563;DHT22;16392;52.508;13.468;2024-03-02T00:48:29;8.70;99.90
8563;DHT22;16392;52.508;13.468;2024-03-02T00:50:57;8.80;99.90
8563;DHT22;16392;52.508;13.468;2024-03-02T00:53:26;8.80;99.90
8563;DHT22;16392;52.508;13.468;2024-03-02T00:55:53;8.80;99.90
8563;DHT22;16392;52.508;13.468;2024-03-02T00:58:19;8.80;99.90
8563;DHT22;16392;52.508;13.468;2024-03-02T01:00:46;8.80;99.90
8563;DHT22;16392;52.508;13.468;2024-03-02T01:03:14;8.80;99.90
8563;DHT22;16392;52.508;13.468;2024-03-02T01:05:42;8.80;99.90
8563;DHT22;16392;52.508;13.468;2024-03-02T01:08:09;8.80;99.90
8563;DHT22;16392;52.508;13.468;2024-03-02T01:10:36;8.80;99.90
8563;DHT22;16392;52.508;13.468;2024-03-02T01:13:04;8.80;99.90
8563;DHT22;16392;52.508;13.468;2024-03-02T01:15:30;8.80;99.90
8563;DHT22;16392;52.508;13.468;2024-03-02T01:17:58;8.80;99.90
8563;DHT22;16392;52.508;13.468;2024-03-02T01:20:25;8.70;99.90
8563;DHT22;16392;52.508;13.468;2024-03-02T01:22:52;8.70;99.90
8563;DHT22;16392;52.508;13.468;2024-03-02T01:25:19;8.70;99.90
8563;DHT22;16392;52.508;13.468;2024-03-02T01:27:46;8.70;99.90
8563;DHT22;16392;52.508;13.468;2024-03-02T01:30:13;8.70;99.90
8563;DHT22;16392;52.508;13.468;2024-03-02T01:32:39;8.70;99.90
8563;DHT22;16392;52.508;13.468;2024-03-02T01:35:07;8.70;99.90
8563;DHT22;16392;52.508;13.468;2024-03-02T01:37:33;8.70;99.90
8563;DHT22;16392;52.508;13.468;2024-03-02T01:40:01;8.70;99.90
8563;DHT22;16392;52.508;13.468;2024-03-02T01:42:33;8.70;99.90
8563;DHT22;16392;52.508;13.468;2024-03-02T01:45:00;8.70;99.90
8563;DHT22;16392;52.508;13.468;2024-03-02T01:47:27;8.70;99.90
8563;DHT22;16392;52.508;13.468;2024-03-02T01:49:54;8.60;99.90
8563;DHT22;16392;52.508;13.468;2024-03-02T01:52:20;8.60;99.90
8563;DHT22;16392;52.508;13.468;2024-03-02T01:54:47;8.60;99.90
8563;DHT22;16392;52.508;13.468;2024-03-02T01:57:15;8.60;99.90
8563;DHT22;16392;52.508;13.468;2024-03-02T01:59:42;8.60;99.90
8563;DHT22;16392;52.508;13.468;2024-03-02T02:02:08;8.60;99.90
8563;DHT22;16392;52.508;13.468;2024-03-02T02:04:35;8.60;99.90
8563;DHT22;16392;52.508;13.468;2024-03-02T02:07:02;8.60;99.90
8563;DHT22;16392;52.508;13.468;2024-03-02T02:09:28;8.60;99.90
8563;DHT22;16392;52.508;13.468;2024-03-02T02:11:55;8.60;99.90
8563;DHT22;16392;52.508;13.468;2024-03-02T02:14:23;8.50;99.90
8563;DHT22;16392;52.508;13.468;2024-03-02T02:16:51;8.50;99.90
8563;DHT22;16392;52.508;13.468;2024-03-02T02:19:18;8.60;99.90
8563;DHT22;16392;52.508;13.468;2024-03-02T02:21:46;8.50;99.90
8563;DHT22;16392;52.508;13.468;2024-03-02T02:24:12;8.60;99.90
8563;DHT22;16392;52.508;13.468;2024-03-02T02:26:39;8.50;99.90
8563;DHT22;16392;52.508;13.468;2024-03-02T02:29:06;8.50;99.90
8563;DHT22;16392;52.508;13.468;2024-03-02T02:31:37;8.50;99.90
8563;DHT22;16392;52.508;13.468;2024-03-02T02:34:04;8.60;99.90
8563;DHT22;16392;52.508;13.468;2024-03-02T02:36:30;8.60;99.90
8563;DHT22;16392;52.508;13.468;2024-03-02T02:39:00;8.60;99.90
8563;DHT22;16392;52.508;13.468;2024-03-02T02:41:30;8.60;99.90
8563;DHT22;16392;52.508;13.468;2024-03-02T02:43:57;8.60;99.90
8563;DHT22;16392;52.508;13.468;2024-03-02T02:46:23;8.60;99.90
8563;DHT22;16392;52.508;13.468;2024-03-02T02:48:52;8.60;99.90
8563;DHT22;16392;52.508;13.468;2024-03-02T02:51:19;8.60;99.90
8563;DHT22;16392;52.508;13.468;2024-03-02T02:53:45;8.60;99.90
8563;DHT22;16392;52.508;13.468;2024-03-02T02:56:15;8.60;99.90
8563;DHT22;16392;52.508;13.468;2024-03-02T02:58:41;8.60;99.90
8563;DHT22;16392;52.508;13.468;2024-03-02T03:01:08;8.60;99.90
8563;DHT22;16392;52.508;13.468;2024-03-02T03:03:35;8.60;99.90
8563;DHT22;16392;52.508;13.468;2024-03-02T03:06:02;8.60;99.90
8563;DHT22;16392;52.508;13.468;2024-03-02T03:08:29;8.60;99.90
8563;DHT22;16392;52.508;13.468;2024-03-02T03:10:56;8.60;99.90
8563;DHT22;16392;52.508;13.468;2024-03-02T03:13:24;8.60;99.90
8563;DHT22;16392;52.508;13.468;2024-03-02T03:15:50;8.60;99.90
8563;DHT22;16392;52.508;13.468;2024-03-02T03:18:18;8.70;99.90
8563;DHT22;16392;52.508;13.468;2024-03-02T03:20:46;8.70;99.90
8563;DHT22;16392;52.508;13.468;2024-03-02T03:23:12;8.70;99.90
8563;DHT22;16392;52.508;13.468;2024-03-02T03:25:41;8.70;99.90
8563;DHT22;16392;52.508;13.468;2024-03-02T03:28:07;8.70;99.90
8563;DHT22;16392;52.508;13.468;2024-03-02T03:30:36;8.70;99.90
8563;DHT22;16392;52.508;13.468;2024-03-02T03:33:03;8.70;99.90
8563;DHT22;16392;52.508;13.468;2024-03-02T03:35:31;8.70;99.90
8563;DHT22;16392;52.508;13.468;2024-03-02T03:37:58;8.70;99.90
8563;DHT22;16392;52.508;13.468;2024-03-02T03:40:25;8.70;99.90
8563;DHT22;16392;52.508;13.468;2024-03-02T03:42:52;8.70;99.90
8563;DHT22;16392;52.508;13.468;2024-03-02T03:45:19;8.70;99.90
8563;DHT22;16392;52.508;13.468;2024-03-02T03:47:47;8.70;99.90
8563;DHT22;16392;52.508;13.468;2024-03-02T03:50:14;8.70;99.90
8563;DHT22;16392;52.508;13.468;2024-03-02T03:52:41;8.70;99.90
8563;DHT22;16392;52.508;13.468;2024-03-02T03:55:08;8.80;99.90
8563;DHT22;16392;52.508;13.468;2024-03-02T03:57:36;8.80;99.90
8563;DHT22;16392;52.508;13.468;2024-03-02T04:00:03;8.80;99.90
8563;DHT22;16392;52.508;13.468;2024-03-02T04:02:30;8.80;99.90
8563;DHT22;16392;52.508;13.468;2024-03-02T04:04:58;8.80;99.90
8563;DHT22;16392;52.508;13.468;2024-03-02T04:07:24;8.90;99.90
8563;DHT22;16392;52.508;13.468;2024-03-02T04:09:51;8.90;99.90
8563;DHT22;16392;52.508;13.468;2024-03-02T04:12:18;8.90;99.90
8563;DHT22;16392;52.508;13.468;2024-03-02T04:14:44;8.90;99.90
8563;DHT22;16392;52.508;13.468;2024-03-02T04:17:11;8.90;99.90
8563;DHT22;16392;52.508;13.468;2024-03-02T04:19:38;8.90;99.90
8563;DHT22;16392;52.508;13.468;2024-03-02T04:22:07;8.90;99.90
8563;DHT22;16392;52.508;13.468;2024-03-02T04:24:34;8.90;99.90
8563;DHT22;16392;52.508;13.468;2024-03-02T04:27:00;8.90;99.90
8563;DHT22;16392;52.508;13.468;2024-03-02T04:29:27;8.90;99.90
8563;DHT22;16392;52.508;13.468;2024-03-02T04:31:54;8.90;99.90
8563;DHT22;16392;52.508;13.468;2024-03-02T04:34:21;8.80;99.90
8563;DHT22;16392;52.508;13.468;2024-03-02T04:36:48;8.80;99.90
8563;DHT22;16392;52.508;13.468;2024-03-02T04:39:17;8.80;99.90
8563;DHT22;16392;52.508;13.468;2024-03-02T04:41:44;8.80;99.90
8563;DHT22;16392;52.508;13.468;2024-03-02T04:44:11;8.80;99.90
8563;DHT22;16392;52.508;13.468;2024-03-02T04:46:37;8.80;99.90
8563;DHT22;16392;52.508;13.468;2024-03-02T04:49:04;8.80;99.90
8563;DHT22;16392;52.508;13.468;2024-03-02T04:51:31;8.80;99.90
8563;DHT22;16392;52.508;13.468;2024-03-02T04:53:58;8.90;99.90
8563;DHT22;16392;52.508;13.468;2024-03-02T04:56:27;8.90;99.90
8563;DHT22;16392;52.508;13.468;2024-03-02T04:59:05;8.90;99.90
8563;DHT22;16392;52.508;13.468;2024-03-02T05:01:32;8.90;99.90
8563;DHT22;16392;52.508;13.468;2024-03-02T05:03:59;8.90;99.90
8563;DHT22;16392;52.508;13.468;2024-03-02T05:06:26;8.90;99.90
8563;DHT22;16392;52.508;13.468;2024-03-02T05:08:53;8.90;99.90
8563;DHT22;16392;52.508;13.468;2024-03-02T05:11:20;8.90;99.90
8563;DHT22;16392;52.508;13.468;2024-03-02T05:14:15;8.90;99.90
8563;DHT22;16392;52.508;13.468;2024-03-02T05:16:41;8.90;99.90
8563;DHT22;16392;52.508;13.468;2024-03-02T05:19:08;9.00;99.90
8563;DHT22;16392;52.508;13.468;2024-03-02T05:21:35;9.00;99.90
8563;DHT22;16392;52.508;13.468;2024-03-02T05:24:01;9.00;99.90
8563;DHT22;16392;52.508;13.468;2024-03-02T05:26:28;9.00;99.90
8563;DHT22;16392;52.508;13.468;2024-03-02T05:28:55;9.00;99.90
8563;DHT22;16392;52.508;13.468;2024-03-02T05:31:23;8.90;99.90
8563;DHT22;16392;52.508;13.468;2024-03-02T05:33:49;8.90;99.90
8563;DHT22;16392;52.508;13.468;2024-03-02T05:36:18;8.90;99.90
8563;DHT22;16392;52.508;13.468;2024-03-02T05:38:46;8.90;99.90
8563;DHT22;16392;52.508;13.468;2024-03-02T05:41:12;8.90;99.90
8563;DHT22;16392;52.508;13.468;2024-03-02T05:43:39;9.00;99.90
8563;DHT22;16392;52.508;13.468;2024-03-02T05:46:06;9.00;99.90
8563;DHT22;16392;52.508;13.468;2024-03-02T05:48:34;9.00;99.90
8563;DHT22;16392;52.508;13.468;2024-03-02T05:51:00;9.00;99.90
8563;DHT22;16392;52.508;13.468;2024-03-02T05:53:27;9.00;99.90
8563;DHT22;16392;52.508;13.468;2024-03-02T05:55:54;9.00;99.90
8563;DHT22;16392;52.508;13.468;2024-03-02T05:58:22;9.00;99.90
8563;DHT22;16392;52.508;13.468;2024-03-02T06:01:08;9.00;99.90
8563;DHT22;16392;52.508;13.468;2024-03-02T06:03:36;9.00;99.90
8563;DHT22;16392;52.508;13.468;2024-03-02T06:06:03;9.00;99.90
8563;DHT22;16392;52.508;13.468;2024-03-02T06:08:31;9.00;99.90
8563;DHT22;16392;52.508;13.468;2024-03-02T06:10:57;9.00;99.90
8563;DHT22;16392;52.508;13.468;2024-03-02T06:13:24;8.90;99.90
8563;DHT22;16392;52.508;13.468;2024-03-02T06:15:52;8.90;99.90
8563;DHT22;16392;52.508;13.468;2024-03-02T06:18:19;8.90;99.90
8563;DHT22;16392;52.508;13.468;2024-03-02T06:20:46;8.90;99.90
8563;DHT22;16392;52.508;13.468;2024-03-02T06:23:14;8.90;99.90
8563;DHT22;16392;52.508;13.468;2024-03-02T06:25:41;8.80;99.90
8563;DHT22;16392;52.508;13.468;2024-03-02T06:28:08;8.90;99.90
8563;DHT22;16392;52.508;13.468;2024-03-02T06:30:34;8.90;99.90
8563;DHT22;16392;52.508;13.468;2024-03-02T06:33:01;8.90;99.90
8563;DHT22;16392;52.508;13.468;2024-03-02T06:35:29;8.80;99.90
8563;DHT22;16392;52.508;13.468;2024-03-02T06:37:57;8.90;99.90
8563;DHT22;16392;52.508;13.468;2024-03-02T06:40:23;8.90;99.90
8563;DHT22;16392;52.508;13.468;2024-03-02T06:42:50;8.90;99.90
8563;DHT22;16392;52.508;13.468;2024-03-02T06:45:16;8.90;99.90
8563;DHT22;16392;52.508;13.468;2024-03-02T06:47:44;8.90;99.90
8563;DHT22;16392;52.508;13.468;2024-03-02T06:50:11;8.90;99.90
8563;DHT22;16392;52.508;13.468;2024-03-02T06:52:37;9.00;99.90
8563;DHT22;16392;52.508;13.468;2024-03-02T06:55:06;9.00;99.90
8563;DHT22;16392;52.508;13.468;2024-03-02T06:57:33;9.00;99.90
8563;DHT22;16392;52.508;13.468;2024-03-02T07:00:00;9.00;99.90
8563;DHT22;16392;52.508;13.468;2024-03-02T07:02:27;9.00;99.90
8563;DHT22;16392;52.508;13.468;2024-03-02T07:04:54;9.00;99.90
8563;DHT22;16392;52.508;13.468;2024-03-02T07:07:20;9.10;99.90
8563;DHT22;16392;52.508;13.468;2024-03-02T07:09:47;9.00;99.90
8563;DHT22;16392;52.508;13.468;2024-03-02T07:12:15;9.00;99.90
8563;DHT22;16392;52.508;13.468;2024-03-02T07:14:42;9.00;99.90
8563;DHT22;16392;52.508;13.468;2024-03-02T07:17:36;9.00;99.90
8563;DHT22;16392;52.508;13.468;2024-03-02T07:20:04;9.00;99.90
8563;DHT22;16392;52.508;13.468;2024-03-02T07:22:32;9.00;99.90
8563;DHT22;16392;52.508;13.468;2024-03-02T07:24:58;9.00;99.90
8563;DHT22;16392;52.508;13.468;2024-03-02T07:27:26;9.00;99.90
8563;DHT22;16392;52.508;13.468;2024-03-02T07:29:53;9.00;99.90
8563;DHT22;16392;52.508;13.468;2024-03-02T07:32:19;9.00;99.90
8563;DHT22;16392;52.508;13.468;2024-03-02T07:34:47;9.10;99.90
8563;DHT22;16392;52.508;13.468;2024-03-02T07:37:16;9.10;99.90
8563;DHT22;16392;52.508;13.468;2024-03-02T07:39:44;9.00;99.90
8563;DHT22;16392;52.508;13.468;2024-03-02T07:42:10;9.10;99.90
8563;DHT22;16392;52.508;13.468;2024-03-02T07:44:38;9.10;99.90
8563;DHT22;16392;52.508;13.468;2024-03-02T07:47:06;9.10;99.90
8563;DHT22;16392;52.508;13.468;2024-03-02T07:49:33;9.10;99.90
8563;DHT22;16392;52.508;13.468;2024-03-02T07:52:00;9.20;99.90
8563;DHT22;16392;52.508;13.468;2024-03-02T07:54:26;9.20;99.90
8563;DHT22;16392;52.508;13.468;2024-03-02T07:56:53;9.20;99.90
8563;DHT22;16392;52.508;13.468;2024-03-02T07:59:20;9.20;99.90
8563;DHT22;16392;52.508;13.468;2024-03-02T08:01:49;9.20;99.90
8563;DHT22;16392;52.508;13.468;2024-03-02T08:04:15;9.20;99.90
8563;DHT22;16392;52.508;13.468;2024-03-02T08:06:43;9.30;99.90
8563;DHT22;16392;52.508;13.468;2024-03-02T08:09:09;9.30;99.90
8563;DHT22;16392;52.508;13.468;2024-03-02T08:11:36;9.40;99.90
8563;DHT22;16392;52.508;13.468;2024-03-02T08:14:04;9.50;99.90
8563;DHT22;16392;52.508;13.468;2024-03-02T08:16:31;9.50;99.90
8563;DHT22;16392;52.508;13.468;2024-03-02T08:18:59;9.50;99.90
8563;DHT22;16392;52.508;13.468;2024-03-02T08:21:26;9.50;99.90
8563;DHT22;16392;52.508;13.468;2024-03-02T08:23:56;9.50;99.90
8563;DHT22;16392;52.508;13.468;2024-03-02T08:26:23;9.60;99.90
8563;DHT22;16392;52.508;13.468;2024-03-02T08:28:50;9.60;99.90
8563;DHT22;16392;52.508;13.468;2024-03-02T08:31:17;9.60;99.90
8563;DHT22;16392;52.508;13.468;2024-03-02T08:33:44;9.60;99.90
8563;DHT22;16392;52.508;13.468;2024-03-02T08:36:12;9.60;99.90
8563;DHT22;16392;52.508;13.468;2024-03-02T08:38:41;9.60;99.90
8563;DHT22;16392;52.508;13.468;2024-03-02T08:41:09;9.70;99.90
8563;DHT22;16392;52.508;13.468;2024-03-02T08:43:40;9.80;99.90
8563;DHT22;16392;52.508;13.468;2024-03-02T08:46:06;9.90;99.90
8563;DHT22;16392;52.508;13.468;2024-03-02T08:48:33;10.00;99.90
8563;DHT22;16392;52.508;13.468;2024-03-02T08:51:00;10.00;99.90
8563;DHT22;16392;52.508;13.468;2024-03-02T08:53:29;10.00;99.90
8563;DHT22;16392;52.508;13.468;2024-03-02T08:55:55;10.00;99.90
8563;DHT22;16392;52.508;13.468;2024-03-02T08:58:23;10.00;99.90
8563;DHT22;16392;52.508;13.468;2024-03-02T09:00:49;10.00;99.90
8563;DHT22;16392;52.508;13.468;2024-03-02T09:03:16;10.00;99.90
8563;DHT22;16392;52.508;13.468;2024-03-02T09:05:43;10.10;99.90
8563;DHT22;16392;52.508;13.468;2024-03-02T09:08:10;10.10;99.90
8563;DHT22;16392;52.508;13.468;2024-03-02T09:10:38;10.10;99.90
8563;DHT22;16392;52.508;13.468;2024-03-02T09:13:05;10.10;99.90
8563;DHT22;16392;52.508;13.468;2024-03-02T09:15:32;10.20;99.90
8563;DHT22;16392;52.508;13.468;2024-03-02T09:18:03;10.30;99.90
8563;DHT22;16392;52.508;13.468;2024-03-02T09:20:29;10.30;99.90
8563;DHT22;16392;52.508;13.468;2024-03-02T09:22:56;10.40;99.90
8563;DHT22;16392;52.508;13.468;2024-03-02T09:25:22;10.40;99.90
8563;DHT22;16392;52.508;13.468;2024-03-02T09:27:50;10.50;99.90
8563;DHT22;16392;52.508;13.468;2024-03-02T09:30:17;10.50;99.90
8563;DHT22;16392;52.508;13.468;2024-03-02T09:32:44;10.60;99.90
8563;DHT22;16392;52.508;13.468;2024-03-02T09:35:10;10.70;99.90
8563;DHT22;16392;52.508;13.468;2024-03-02T09:37:38;10.90;99.90
8563;DHT22;16392;52.508;13.468;2024-03-02T09:40:06;11.10;99.90
8563;DHT22;16392;52.508;13.468;2024-03-02T09:42:33;11.20;99.90
8563;DHT22;16392;52.508;13.468;2024-03-02T09:45:02;11.40;99.90
8563;DHT22;16392;52.508;13.468;2024-03-02T09:47:28;11.50;99.90
8563;DHT22;16392;52.508;13.468;2024-03-02T09:49:55;11.70;99.90
8563;DHT22;16392;52.508;13.468;2024-03-02T09:52:22;12.00;99.90
8563;DHT22;16392;52.508;13.468;2024-03-02T09:54:49;12.00;99.90
8563;DHT22;16392;52.508;13.468;2024-03-02T09:57:16;12.00;99.90
8563;DHT22;16392;52.508;13.468;2024-03-02T09:59:43;12.00;99.90
8563;DHT22;16392;52.508;13.468;2024-03-02T10:02:12;12.10;99.90
8563;DHT22;16392;52.508;13.468;2024-03-02T10:04:38;12.20;99.90
8563;DHT22;16392;52.508;13.468;2024-03-02T10:07:12;12.40;99.90
8563;DHT22;16392;52.508;13.468;2024-03-02T10:09:40;12.60;99.90
8563;DHT22;16392;52.508;13.468;2024-03-02T10:12:11;12.80;99.90
8563;DHT22;16392;52.508;13.468;2024-03-02T10:14:39;12.80;99.90
8563;DHT22;16392;52.508;13.468;2024-03-02T10:17:07;12.70;99.90
8563;DHT22;16392;52.508;13.468;2024-03-02T10:19:41;12.80;99.90
8563;DHT22;16392;52.508;13.468;2024-03-02T10:22:09;12.90;99.90
8563;DHT22;16392;52.508;13.468;2024-03-02T10:24:39;13.10;99.90
8563;DHT22;16392;52.508;13.468;2024-03-02T10:27:10;13.40;99.90
8563;DHT22;16392;52.508;13.468;2024-03-02T10:29:41;13.60;99.90
8563;DHT22;16392;52.508;13.468;2024-03-02T10:32:09;14.00;99.90
8563;DHT22;16392;52.508;13.468;2024-03-02T10:34:39;14.00;99.90
8563;DHT22;16392;52.508;13.468;2024-03-02T10:37:07;13.80;99.90
8563;DHT22;16392;52.508;13.468;2024-03-02T10:39:35;13.70;99.90
8563;DHT22;16392;52.508;13.468;2024-03-02T10:42:03;13.80;99.90
8563;DHT22;16392;52.508;13.468;2024-03-02T10:44:32;13.90;99.90
8563;DHT22;16392;52.508;13.468;2024-03-02T10:47:01;13.80;99.90
8563;DHT22;16392;52.508;13.468;2024-03-02T10:49:29;13.90;99.90
8563;DHT22;16392;52.508;13.468;2024-03-02T10:51:59;14.10;99.90
8563;DHT22;16392;52.508;13.468;2024-03-02T10:54:27;14.20;99.90
8563;DHT22;16392;52.508;13.468;2024-03-02T10:57:02;14.30;99.90
8563;DHT22;16392;52.508;13.468;2024-03-02T10:59:34;14.30;99.90
8563;DHT22;16392;52.508;13.468;2024-03-02T11:02:03;14.00;99.90
8563;DHT22;16392;52.508;13.468;2024-03-02T11:04:32;13.90;99.90
8563;DHT22;16392;52.508;13.468;2024-03-02T11:07:03;13.90;99.90
8563;DHT22;16392;52.508;13.468;2024-03-02T11:09:34;13.80;99.90
8563;DHT22;16392;52.508;13.468;2024-03-02T11:12:03;13.90;99.90
8563;DHT22;16392;52.508;13.468;2024-03-02T11:14:38;14.10;99.90
8563;DHT22;16392;52.508;13.468;2024-03-02T11:17:09;14.30;99.90
8563;DHT22;16392;52.508;13.468;2024-03-02T11:19:38;14.40;99.90
8563;DHT22;16392;52.508;13.468;2024-03-02T11:22:06;14.40;99.90
8563;DHT22;16392;52.508;13.468;2024-03-02T11:24:36;14.60;99.90
8563;DHT22;16392;52.508;13.468;2024-03-02T11:27:04;14.90;99.90
8563;DHT22;16392;52.508;13.468;2024-03-02T11:29:46;15.20;99.90
8563;DHT22;16392;52.508;13.468;2024-03-02T11:32:20;15.40;99.90
8563;DHT22;16392;52.508;13.468;2024-03-02T11:34:49;15.40;99.90
8563;DHT22;16392;52.508;13.468;2024-03-02T11:37:18;15.60;99.90
8563;DHT22;16392;52.508;13.468;2024-03-02T11:39:49;15.80;99.90
8563;DHT22;16392;52.508;13.468;2024-03-02T11:42:17;15.60;99.90
8563;DHT22;16392;52.508;13.468;2024-03-02T11:44:45;15.70;99.90
8563;DHT22;16392;52.508;13.468;2024-03-02T11:47:15;15.60;99.90
8563;DHT22;16392;52.508;13.468;2024-03-02T11:49:45;16.60;99.90
8563;DHT22;16392;52.508;13.468;2024-03-02T11:52:13;17.00;99.90
8563;DHT22;16392;52.508;13.468;2024-03-02T11:54:41;17.20;99.90
8563;DHT22;16392;52.508;13.468;2024-03-02T11:57:14;17.40;99.90
8563;DHT22;16392;52.508;13.468;2024-03-02T11:59:42;16.90;99.90
8563;DHT22;16392;52.508;13.468;2024-03-02T12:02:15;16.30;99.90
8563;DHT22;16392;52.508;13.468;2024-03-02T12:04:42;16.20;99.90
8563;DHT22;16392;52.508;13.468;2024-03-02T12:07:11;16.10;99.90
8563;DHT22;16392;52.508;13.468;2024-03-02T12:09:39;16.10;99.90
8563;DHT22;16392;52.508;13.468;2024-03-02T12:12:08;16.40;99.90
8563;DHT22;16392;52.508;13.468;2024-03-02T12:14:38;17.50;99.90
8563;DHT22;16392;52.508;13.468;2024-03-02T12:17:10;18.40;99.90
8563;DHT22;16392;52.508;13.468;2024-03-02T12:19:37;19.20;99.90
8563;DHT22;16392;52.508;13.468;2024-03-02T12:22:06;19.90;99.90
8563;DHT22;16392;52.508;13.468;2024-03-02T12:24:33;20.50;99.90
8563;DHT22;16392;52.508;13.468;2024-03-02T12:27:00;20.80;99.90
8563;DHT22;16392;52.508;13.468;2024-03-02T12:29:28;21.90;99.90
8563;DHT22;16392;52.508;13.468;2024-03-02T12:31:56;22.60;99.90
8563;DHT22;16392;52.508;13.468;2024-03-02T12:34:26;23.40;99.90
8563;DHT22;16392;52.508;13.468;2024-03-02T12:36:53;23.00;99.90
8563;DHT22;16392;52.508;13.468;2024-03-02T12:39:24;23.00;99.90
8563;DHT22;16392;52.508;13.468;2024-03-02T12:41:55;22.30;99.90
8563;DHT22;16392;52.508;13.468;2024-03-02T12:44:22;22.30;99.90
8563;DHT22;16392;52.508;13.468;2024-03-02T12:46:49;22.10;99.90
8563;DHT22;16392;52.508;13.468;2024-03-02T12:49:22;20.60;99.90
8563;DHT22;16392;52.508;13.468;2024-03-02T12:51:49;20.10;99.90
8563;DHT22;16392;52.508;13.468;2024-03-02T12:54:22;20.80;99.90
8563;DHT22;16392;52.508;13.468;2024-03-02T12:56:49;20.50;99.90
8563;DHT22;16392;52.508;13.468;2024-03-02T12:59:18;20.70;99.90
8563;DHT22;16392;52.508;13.468;2024-03-02T13:01:52;20.10;99.90
8563;DHT22;16392;52.508;13.468;2024-03-02T13:04:24;19.80;99.90
8563;DHT22;16392;52.508;13.468;2024-03-02T13:06:57;19.90;99.90
8563;DHT22;16392;52.508;13.468;2024-03-02T13:09:28;19.60;99.90
8563;DHT22;16392;52.508;13.468;2024-03-02T13:11:59;19.90;99.90
8563;DHT22;16392;52.508;13.468;2024-03-02T13:14:35;19.60;99.90
8563;DHT22;16392;52.508;13.468;2024-03-02T13:17:05;18.60;99.90
8563;DHT22;16392;52.508;13.468;2024-03-02T13:19:34;18.30;99.90
8563;DHT22;16392;52.508;13.468;2024-03-02T13:22:07;18.60;99.90
8563;DHT22;16392;52.508;13.468;2024-03-02T13:24:47;19.60;99.90
8563;DHT22;16392;52.508;13.468;2024-03-02T13:27:16;20.60;99.90
8563;DHT22;16392;52.508;13.468;2024-03-02T13:29:46;20.50;99.90
8563;DHT22;16392;52.508;13.468;2024-03-02T13:32:14;21.20;99.90
8563;DHT22;16392;52.508;13.468;2024-03-02T13:34:42;21.00;99.90
8563;DHT22;16392;52.508;13.468;2024-03-02T13:37:10;21.20;99.90
8563;DHT22;16392;52.508;13.468;2024-03-02T13:39:37;20.60;99.90
8563;DHT22;16392;52.508;13.468;2024-03-02T13:42:08;20.20;99.90
8563;DHT22;16392;52.508;13.468;2024-03-02T13:44:35;19.80;99.90
8563;DHT22;16392;52.508;13.468;2024-03-02T13:47:03;18.80;99.90
8563;DHT22;16392;52.508;13.468;2024-03-02T13:49:31;18.10;99.90
8563;DHT22;16392;52.508;13.468;2024-03-02T13:52:06;17.80;99.90
8563;DHT22;16392;52.508;13.468;2024-03-02T13:54:41;17.40;99.90
8563;DHT22;16392;52.508;13.468;2024-03-02T13:57:09;17.10;99.90
8563;DHT22;16392;52.508;13.468;2024-03-02T13:59:35;17.30;99.90
8563;DHT22;16392;52.508;13.468;2024-03-02T14:02:02;17.00;99.90
8563;DHT22;16392;52.508;13.468;2024-03-02T14:04:30;16.80;99.90
8563;DHT22;16392;52.508;13.468;2024-03-02T14:07:02;16.90;99.90
8563;DHT22;16392;52.508;13.468;2024-03-02T14:09:38;16.80;99.90
8563;DHT22;16392;52.508;13.468;2024-03-02T14:12:10;16.70;99.90
8563;DHT22;16392;52.508;13.468;2024-03-02T14:14:42;16.40;99.90
8563;DHT22;16392;52.508;13.468;2024-03-02T14:17:09;16.20;99.90
8563;DHT22;16392;52.508;13.468;2024-03-02T14:19:41;16.30;99.90
8563;DHT22;16392;52.508;13.468;2024-03-02T14:22:08;16.30;99.90
8563;DHT22;16392;52.508;13.468;2024-03-02T14:24:36;16.30;99.90
8563;DHT22;16392;52.508;13.468;2024-03-02T14:27:04;16.10;99.90
8563;DHT22;16392;52.508;13.468;2024-03-02T14:29:32;16.00;99.90
8563;DHT22;16392;52.508;13.468;2024-03-02T14:32:02;15.90;99.90
8563;DHT22;16392;52.508;13.468;2024-03-02T14:34:29;15.80;99.90
8563;DHT22;16392;52.508;13.468;2024-03-02T14:36:57;15.80;99.90
8563;DHT22;16392;52.508;13.468;2024-03-02T14:39:24;15.50;99.90
8563;DHT22;16392;52.508;13.468;2024-03-02T14:41:52;15.50;99.90
8563;DHT22;16392;52.508;13.468;2024-03-02T14:44:23;15.40;99.90
8563;DHT22;16392;52.508;13.468;2024-03-02T14:46:55;15.30;99.90
8563;DHT22;16392;52.508;13.468;2024-03-02T14:49:24;15.00;99.90
8563;DHT22;16392;52.508;13.468;2024-03-02T14:51:55;15.00;99.90
8563;DHT22;16392;52.508;13.468;2024-03-02T14:54:22;14.90;99.90
8563;DHT22;16392;52.508;13.468;2024-03-02T14:56:52;14.80;99.90
8563;DHT22;16392;52.508;13.468;2024-03-02T14:59:24;14.70;99.90
8563;DHT22;16392;52.508;13.468;2024-03-02T15:02:01;14.60;99.90
8563;DHT22;16392;52.508;13.468;2024-03-02T15:04:42;14.50;99.90
8563;DHT22;16392;52.508;13.468;2024-03-02T15:07:16;14.30;99.90
8563;DHT22;16392;52.508;13.468;2024-03-02T15:10:01;14.20;99.90
8563;DHT22;16392;52.508;13.468;2024-03-02T15:12:41;14.20;99.90
8563;DHT22;16392;52.508;13.468;2024-03-02T15:15:16;14.20;99.90
8563;DHT22;16392;52.508;13.468;2024-03-02T15:17:44;14.20;99.90
8563;DHT22;16392;52.508;13.468;2024-03-02T15:20:13;14.30;99.90
8563;DHT22;16392;52.508;13.468;2024-03-02T15:22:41;14.40;99.90
8563;DHT22;16392;52.508;13.468;2024-03-02T15:25:08;14.30;99.90
8563;DHT22;16392;52.508;13.468;2024-03-02T15:27:35;14.40;99.90
8563;DHT22;16392;52.508;13.468;2024-03-02T15:30:04;14.30;99.90
8563;DHT22;16392;52.508;13.468;2024-03-02T15:32:33;14.20;99.90
8563;DHT22;16392;52.508;13.468;2024-03-02T15:35:02;14.00;99.90
8563;DHT22;16392;52.508;13.468;2024-03-02T15:37:30;13.80;99.90
8563;DHT22;16392;52.508;13.468;2024-03-02T15:39:57;13.70;99.90
8563;DHT22;16392;52.508;13.468;2024-03-02T15:42:32;13.50;99.90
8563;DHT22;16392;52.508;13.468;2024-03-02T15:45:03;13.40;99.90
8563;DHT22;16392;52.508;13.468;2024-03-02T15:47:32;13.30;99.90
8563;DHT22;16392;52.508;13.468;2024-03-02T15:50:06;13.10;99.90